Ware, MA (01082)

2:57 AM EDT on July 27, 2016 (GMT -0400)
Quabbin East | | Change Station

Elev 594 ft 42.27 °N, 72.26 °W | Updated 12 minutes ago

Clear
Clear
64.6 °F
Feels Like 64.6 °F
N
0.0
Wind Variable Wind from SSE

Today
High -- | Low -- °F
--% Chance of Precip.
Yesterday
High -- | Low -- °F
Precip. -- in
Pressure 29.94 in
Visibility 10.0 miles
Clouds Clear
Dew Point 61 °F
Humidity 89%
Rainfall 0.00 in
Snow Depth Not available.
5:37 AM 8:13 PM
Last Quarter, 46% visible
METAR KCEF 270558Z AUTO 05002KT 10SM CLR 18/17 A2992 RMK AO2 SLP136 T01800167 10283 20175 52006
Pressure 29.94 in
Visibility 10.0 miles
Clouds Clear
Dew Point 61 °F
Humidity 89%
Rainfall 0.00 in
Snow Depth Not available.
5:37 AM 8:13 PM
Last Quarter, 46% visible
METAR KCEF 270558Z AUTO 05002KT 10SM CLR 18/17 A2992 RMK AO2 SLP136 T01800167 10283 20175 52006

10-Day Weather Forecast

Almanac

Astronomy

Jul. 27, 2016 Rise Set
Actual Time
Civil Twilight
Nautical Twilight
Astronomical Twilight
Moon
Length of Visible Light
Length of Day
Tomorrow will be .
, % of the Moon is Illuminated

Today's Extremes

State Highs State Lows

Community

WunderPhotos

Upload Photos

1,927,818 photos uploaded!

WunderBlog® & News

Nearby

Air Quality

  Air Quality AQ Index Pollutant
Not available.

Snow Depth

Station Depth Elevation

Earthquake Activity

City Distance Mag. Time & Date
Minimum magnitude displayed is 2.5.

Coastal Water Temperatures

Place Temperature

Stations

Nearby Weather Stations

Station Location Temp. Windchill Dew Point Humidity Wind Precip. Elev Updated Type
                   

Watches & Warnings

There are currently no watches in effect.